createdAt,value
2019-02-25T00:00:31.564Z,4.92
2019-02-25T00:01:31.569Z,4.98
2019-02-25T00:02:31.536Z,4.89
2019-02-25T00:03:31.543Z,4.86
2019-02-25T00:04:31.514Z,4.77
2019-02-25T00:05:31.506Z,4.83
2019-02-25T00:06:31.502Z,4.72
2019-02-25T00:07:31.488Z,4.57
2019-02-25T00:08:31.507Z,4.52
2019-02-25T00:09:31.451Z,4.51
2019-02-25T00:10:31.451Z,4.47
2019-02-25T00:11:31.451Z,4.51
2019-02-25T00:12:31.446Z,4.51
2019-02-25T00:13:31.412Z,4.59
2019-02-25T00:14:31.423Z,4.57
2019-02-25T00:15:31.385Z,4.52
2019-02-25T00:16:31.397Z,4.54
2019-02-25T00:17:31.413Z,4.50
2019-02-25T00:18:31.370Z,4.54
2019-02-25T00:19:31.352Z,4.40
2019-02-25T00:20:31.348Z,4.39
2019-02-25T00:21:31.327Z,4.37
2019-02-25T00:22:31.317Z,4.21
2019-02-25T00:23:31.323Z,4.16
2019-02-25T00:24:31.302Z,4.22
2019-02-25T00:25:31.290Z,4.22
2019-02-25T00:26:31.285Z,4.28
2019-02-25T00:27:31.265Z,4.18
2019-02-25T00:28:31.277Z,4.19
2019-02-25T00:29:31.246Z,4.22
2019-02-25T00:30:31.230Z,4.34
2019-02-25T00:31:31.221Z,4.39
2019-02-25T00:32:31.214Z,4.32
2019-02-25T00:33:31.194Z,4.39
2019-02-25T00:34:31.195Z,4.43
2019-02-25T00:35:31.176Z,4.46
2019-02-25T00:36:31.160Z,4.44
2019-02-25T00:37:31.162Z,4.50
2019-02-25T00:38:31.152Z,4.44
2019-02-25T00:39:31.169Z,4.40
2019-02-25T00:40:31.127Z,4.46
2019-02-25T00:41:31.107Z,4.40
2019-02-25T00:42:31.093Z,4.37
2019-02-25T00:43:31.094Z,4.39
2019-02-25T00:44:31.090Z,4.36
2019-02-25T00:45:31.465Z,4.32
2019-02-25T00:46:31.053Z,4.29
2019-02-25T00:47:31.057Z,4.28
2019-02-25T00:48:31.047Z,4.21
2019-02-25T00:49:31.036Z,4.19
2019-02-25T00:50:31.036Z,4.18
2019-02-25T00:51:31.004Z,4.12
2019-02-25T00:52:31.003Z,3.97
2019-02-25T00:53:30.974Z,3.92
2019-02-25T00:54:30.985Z,3.94
2019-02-25T00:55:30.971Z,3.90
2019-02-25T00:56:30.944Z,3.89
2019-02-25T00:57:30.942Z,3.72
2019-02-25T00:58:30.956Z,3.70
2019-02-25T00:59:30.913Z,3.68
2019-02-25T01:00:30.921Z,3.60
2019-02-25T01:01:30.899Z,3.64
2019-02-25T01:02:30.893Z,3.50
2019-02-25T01:03:30.871Z,3.57
2019-02-25T01:04:30.862Z,3.65
2019-02-25T01:05:30.899Z,3.57
2019-02-25T01:06:30.830Z,3.67
2019-02-25T01:07:30.817Z,3.58
2019-02-25T01:08:30.809Z,3.64
2019-02-25T01:09:30.809Z,3.68
2019-02-25T01:10:30.819Z,3.68
2019-02-25T01:11:30.781Z,3.78
2019-02-25T01:12:30.780Z,3.75
2019-02-25T01:13:30.759Z,3.85
2019-02-25T01:14:30.742Z,3.85
2019-02-25T01:15:30.759Z,3.80
2019-02-25T01:16:30.748Z,3.90
2019-02-25T01:17:30.715Z,3.82
2019-02-25T01:18:30.697Z,3.89
2019-02-25T01:19:30.693Z,3.85
2019-02-25T01:20:30.678Z,3.71
2019-02-25T01:21:30.708Z,3.65
2019-02-25T01:22:30.663Z,3.67
2019-02-25T01:23:30.653Z,3.64
2019-02-25T01:24:30.645Z,3.64
2019-02-25T01:25:30.625Z,3.53
2019-02-25T01:26:30.612Z,3.47
2019-02-25T01:27:30.620Z,3.57
2019-02-25T01:28:30.588Z,3.52
2019-02-25T01:29:30.591Z,3.52
2019-02-25T01:30:30.572Z,3.50
2019-02-25T01:31:30.593Z,3.36
2019-02-25T01:32:30.545Z,3.42
2019-02-25T01:33:30.543Z,3.28
2019-02-25T01:34:30.533Z,3.21
2019-02-25T01:35:30.527Z,3.28
2019-02-25T01:36:30.510Z,3.28
2019-02-25T01:37:30.512Z,3.31
2019-02-25T01:38:30.503Z,3.20
2019-02-25T01:39:30.471Z,3.24
2019-02-25T01:40:30.460Z,3.23
2019-02-25T01:41:30.465Z,3.24
2019-02-25T01:42:30.486Z,3.27
2019-02-25T01:43:30.435Z,3.25
2019-02-25T01:44:30.428Z,3.20
2019-02-25T01:45:30.405Z,3.23
2019-02-25T01:46:30.389Z,3.24
2019-02-25T01:47:30.391Z,3.20
2019-02-25T01:48:30.400Z,3.28
2019-02-25T01:49:30.357Z,3.30
2019-02-25T01:50:30.346Z,3.43
2019-02-25T01:51:30.343Z,3.44
2019-02-25T01:52:30.332Z,3.60
2019-02-25T01:53:30.342Z,3.68
2019-02-25T01:54:30.313Z,3.67
2019-02-25T01:55:30.301Z,3.67
2019-02-25T01:56:30.292Z,3.68
2019-02-25T01:57:30.276Z,3.68
2019-02-25T01:58:30.295Z,3.71
2019-02-25T01:59:30.247Z,3.76
2019-02-25T02:00:30.243Z,3.80
2019-02-25T02:01:30.261Z,3.85
2019-02-25T02:02:30.225Z,3.79
2019-02-25T02:03:30.201Z,3.88
2019-02-25T02:04:30.213Z,3.86
2019-02-25T02:05:30.203Z,3.96
2019-02-25T02:06:30.185Z,3.86
2019-02-25T02:07:30.169Z,3.85
2019-02-25T02:08:30.185Z,3.83
2019-02-25T02:09:30.145Z,3.79
2019-02-25T02:10:30.130Z,3.85
2019-02-25T02:11:30.123Z,3.89
2019-02-25T02:12:32.114Z,3.82
2019-02-25T02:13:30.108Z,3.82
2019-02-25T02:14:30.114Z,3.80
2019-02-25T02:15:30.088Z,3.83
2019-02-25T02:16:30.081Z,3.71
2019-02-25T02:17:30.050Z,3.76
2019-02-25T02:18:30.044Z,3.65
2019-02-25T02:19:30.065Z,3.64
2019-02-25T02:20:30.048Z,3.67
2019-02-25T02:21:30.009Z,3.67
2019-02-25T02:22:30.001Z,3.65
2019-02-25T02:23:29.992Z,3.71
2019-02-25T02:24:30.010Z,3.65
2019-02-25T02:25:29.979Z,3.68
2019-02-25T02:26:29.964Z,3.68
2019-02-25T02:27:29.971Z,3.62
2019-02-25T02:28:29.937Z,3.62
2019-02-25T02:29:29.922Z,3.65
2019-02-25T02:30:29.936Z,3.67
2019-02-25T02:31:29.902Z,3.65
2019-02-25T02:32:29.893Z,3.71
2019-02-25T02:33:29.893Z,3.82
2019-02-25T02:34:29.875Z,3.80
2019-02-25T02:35:29.899Z,3.72
2019-02-25T02:36:29.850Z,3.75
2019-02-25T02:37:29.850Z,3.67
2019-02-25T02:38:29.831Z,3.70
2019-02-25T02:39:29.828Z,3.60
2019-02-25T02:40:29.847Z,3.64
2019-02-25T02:41:29.791Z,3.67
2019-02-25T02:42:29.787Z,3.62
2019-02-25T02:43:29.777Z,3.50
2019-02-25T02:44:29.768Z,3.49
2019-02-25T02:45:29.741Z,3.47
2019-02-25T02:46:29.766Z,3.39
2019-02-25T02:47:29.723Z,3.28
2019-02-25T02:48:29.711Z,3.21
2019-02-25T02:49:29.707Z,3.30
2019-02-25T02:50:29.721Z,3.24
2019-02-25T02:51:29.677Z,3.18
2019-02-25T02:52:29.700Z,3.27
2019-02-25T02:53:29.663Z,3.30
2019-02-25T02:54:29.660Z,3.33
2019-02-25T02:55:29.653Z,3.30
2019-02-25T02:56:29.652Z,3.25
2019-02-25T02:57:29.619Z,3.15
2019-02-25T02:58:29.625Z,3.09
2019-02-25T02:59:29.592Z,3.09
2019-02-25T03:00:29.591Z,3.00
2019-02-25T03:01:29.580Z,3.05
2019-02-25T03:02:29.566Z,3.03
2019-02-25T03:03:29.582Z,3.00
2019-02-25T03:04:29.566Z,2.88
2019-02-25T03:05:29.526Z,2.87
2019-02-25T03:06:29.534Z,2.94
2019-02-25T03:07:29.513Z,2.89
2019-02-25T03:08:29.524Z,2.91
2019-02-25T03:09:29.490Z,2.87
2019-02-25T03:10:29.474Z,2.88
2019-02-25T03:11:29.465Z,2.89
2019-02-25T03:12:29.459Z,2.88
2019-02-25T03:13:29.483Z,2.91
2019-02-25T03:14:29.446Z,2.87
2019-02-25T03:15:29.443Z,2.95
2019-02-25T03:16:29.427Z,2.92
2019-02-25T03:17:29.394Z,2.85
2019-02-25T03:18:29.418Z,2.84
2019-02-25T03:19:29.394Z,2.84
2019-02-25T03:20:29.388Z,2.91
2019-02-25T03:21:29.364Z,2.92
2019-02-25T03:22:29.350Z,2.84
2019-02-25T03:23:29.335Z,2.91
2019-02-25T03:24:29.340Z,2.81
2019-02-25T03:25:29.327Z,2.82
2019-02-25T03:26:29.318Z,2.77
2019-02-25T03:27:29.319Z,2.84
2019-02-25T03:28:29.283Z,2.81
2019-02-25T03:29:29.280Z,2.76
2019-02-25T03:30:29.261Z,2.84
2019-02-25T03:31:29.243Z,2.71
2019-02-25T03:32:29.274Z,2.69
2019-02-25T03:33:29.229Z,2.66
2019-02-25T03:34:29.246Z,2.63
2019-02-25T03:35:29.216Z,2.66
2019-02-25T03:36:29.200Z,2.64
2019-02-25T03:37:29.180Z,2.67
2019-02-25T03:38:29.170Z,2.63
2019-02-25T03:39:29.194Z,2.69
2019-02-25T03:40:29.161Z,2.66
2019-02-25T03:41:29.134Z,2.70
2019-02-25T03:42:29.130Z,2.71
2019-02-25T03:43:29.116Z,2.67
2019-02-25T03:44:29.135Z,2.67
2019-02-25T03:45:29.106Z,2.64
2019-02-25T03:46:29.097Z,2.61
2019-02-25T03:47:29.078Z,2.64
2019-02-25T03:48:29.073Z,2.70
2019-02-25T03:49:29.055Z,2.66
2019-02-25T03:50:29.066Z,2.76
2019-02-25T03:51:29.022Z,2.69
2019-02-25T03:52:29.015Z,2.61
2019-02-25T03:53:29.015Z,2.66
2019-02-25T03:54:29.034Z,2.69
2019-02-25T03:55:28.986Z,2.69
2019-02-25T03:56:29.000Z,2.74
2019-02-25T03:57:28.966Z,2.81
2019-02-25T03:58:28.959Z,2.85
2019-02-25T03:59:28.958Z,2.85
2019-02-25T04:00:28.968Z,2.84
2019-02-25T04:01:28.918Z,2.79
2019-02-25T04:02:28.903Z,2.77
2019-02-25T04:03:28.895Z,2.84
2019-02-25T04:04:28.887Z,2.76
2019-02-25T04:05:28.884Z,2.77
2019-02-25T04:06:28.886Z,2.81
2019-02-25T04:07:28.862Z,2.74
2019-02-25T04:08:28.851Z,2.70
2019-02-25T04:09:28.825Z,2.77
2019-02-25T04:10:28.821Z,2.76
2019-02-25T04:11:28.852Z,2.74
2019-02-25T04:12:28.810Z,2.76
2019-02-25T04:13:28.794Z,2.77
2019-02-25T04:14:28.778Z,2.67
2019-02-25T04:15:28.764Z,2.70
2019-02-25T04:16:28.775Z,2.70
2019-02-25T04:17:28.753Z,2.74
2019-02-25T04:18:28.745Z,2.67
2019-02-25T04:19:28.736Z,2.69
2019-02-25T04:20:28.723Z,2.66
2019-02-25T04:21:28.727Z,2.66
2019-02-25T04:22:28.686Z,2.77
2019-02-25T04:23:28.691Z,2.73
2019-02-25T04:24:28.666Z,2.63
2019-02-25T04:25:28.663Z,2.67
2019-02-25T04:26:28.647Z,2.64
2019-02-25T04:27:28.662Z,2.66
2019-02-25T04:28:28.623Z,2.56
2019-02-25T04:29:28.618Z,2.61
2019-02-25T04:30:28.673Z,2.59
2019-02-25T04:31:28.624Z,2.58
2019-02-25T04:32:28.589Z,2.58
2019-02-25T04:33:28.564Z,2.53
2019-02-25T04:34:28.623Z,2.58
2019-02-25T04:35:28.547Z,2.61
2019-02-25T04:36:28.559Z,2.56
2019-02-25T04:37:28.530Z,2.63
2019-02-25T04:38:28.517Z,2.52
2019-02-25T04:39:28.500Z,2.63
2019-02-25T04:40:28.489Z,2.59
2019-02-25T04:41:28.615Z,2.59
2019-02-25T04:42:28.467Z,2.52
2019-02-25T04:43:28.461Z,2.55
2019-02-25T04:44:28.449Z,2.56
2019-02-25T04:45:28.442Z,2.56
2019-02-25T04:46:28.450Z,2.67
2019-02-25T04:47:28.417Z,2.56
2019-02-25T04:48:28.402Z,2.58
2019-02-25T04:49:28.396Z,2.59
2019-02-25T04:50:28.386Z,2.58
2019-02-25T04:51:28.376Z,2.58
2019-02-25T04:52:28.382Z,2.63
2019-02-25T04:53:28.344Z,2.58
2019-02-25T04:54:28.337Z,2.61
2019-02-25T04:55:28.350Z,2.58
2019-02-25T04:56:28.344Z,2.51
2019-02-25T04:57:28.315Z,2.49
2019-02-25T04:58:28.303Z,2.52
2019-02-25T04:59:28.282Z,2.34
2019-02-25T05:00:28.275Z,2.38
2019-02-25T05:01:28.262Z,2.37
2019-02-25T05:02:28.278Z,2.41
2019-02-25T05:03:28.241Z,2.38
2019-02-25T05:04:28.238Z,2.45
2019-02-25T05:05:28.217Z,2.44
2019-02-25T05:06:28.207Z,2.38
2019-02-25T05:07:28.229Z,2.35
2019-02-25T05:08:28.194Z,2.26
2019-02-25T05:09:28.178Z,2.46
2019-02-25T05:10:28.170Z,2.37
2019-02-25T05:11:28.171Z,2.34
2019-02-25T05:12:28.155Z,2.35
2019-02-25T05:13:28.157Z,2.23
2019-02-25T05:14:28.139Z,2.31
2019-02-25T05:15:28.124Z,2.23
2019-02-25T05:16:28.112Z,2.33
2019-02-25T05:17:28.088Z,2.30
2019-02-25T05:18:28.077Z,2.27
2019-02-25T05:19:28.093Z,2.15
2019-02-25T05:20:28.060Z,2.20
2019-02-25T05:21:28.054Z,2.19
2019-02-25T05:22:28.045Z,2.17
2019-02-25T05:23:28.043Z,2.19
2019-02-25T05:24:28.051Z,2.22
2019-02-25T05:25:28.002Z,2.17
2019-02-25T05:26:27.992Z,2.15
2019-02-25T05:27:27.992Z,2.20
2019-02-25T05:28:27.970Z,2.13
2019-02-25T05:29:27.967Z,2.15
2019-02-25T05:30:27.987Z,2.15
2019-02-25T05:31:27.942Z,2.16
2019-02-25T05:32:27.928Z,2.34
2019-02-25T05:33:27.932Z,2.37
2019-02-25T05:34:27.914Z,2.45
2019-02-25T05:35:27.995Z,2.59
2019-02-25T05:36:27.890Z,2.53
2019-02-25T05:37:27.880Z,2.64
2019-02-25T05:38:27.871Z,2.70
2019-02-25T05:39:27.851Z,2.77
2019-02-25T05:40:27.844Z,2.79
2019-02-25T05:41:28.095Z,2.77
2019-02-25T05:42:27.843Z,2.81
2019-02-25T05:43:27.821Z,2.79
2019-02-25T05:44:27.816Z,2.71
2019-02-25T05:45:27.791Z,2.63
2019-02-25T05:46:27.795Z,2.61
2019-02-25T05:47:27.776Z,2.59
2019-02-25T05:48:27.775Z,2.44
2019-02-25T05:49:27.739Z,2.40
2019-02-25T05:50:27.760Z,2.38
2019-02-25T05:51:27.729Z,2.44
2019-02-25T05:52:27.717Z,2.34
2019-02-25T05:53:27.707Z,2.34
2019-02-25T05:54:27.708Z,2.23
2019-02-25T05:55:27.702Z,2.23
2019-02-25T05:56:27.759Z,2.20
2019-02-25T05:57:27.659Z,2.19
2019-02-25T05:58:27.644Z,2.10
2019-02-25T05:59:27.639Z,2.13
2019-02-25T06:00:27.624Z,2.10
2019-02-25T06:01:27.668Z,2.02
2019-02-25T06:02:27.612Z,1.97
2019-02-25T06:03:27.595Z,2.01
2019-02-25T06:04:27.580Z,2.06
2019-02-25T06:05:27.600Z,2.01
2019-02-25T06:06:27.572Z,2.06
2019-02-25T06:07:27.580Z,2.08
2019-02-25T06:08:27.582Z,2.15
2019-02-25T06:09:27.537Z,2.20
2019-02-25T06:10:27.517Z,2.13
2019-02-25T06:11:27.519Z,2.19
2019-02-25T06:12:27.502Z,2.12
2019-02-25T06:13:27.514Z,2.17
2019-02-25T06:14:27.507Z,2.22
2019-02-25T06:15:27.475Z,2.22
2019-02-25T06:16:27.458Z,2.22
2019-02-25T06:17:27.443Z,2.26
2019-02-25T06:18:27.452Z,2.20
2019-02-25T06:19:27.433Z,2.20
2019-02-25T06:20:27.418Z,2.23
2019-02-25T06:21:27.407Z,2.35
2019-02-25T06:22:27.383Z,2.38
2019-02-25T06:23:27.431Z,2.38
2019-02-25T06:24:27.370Z,2.45
2019-02-25T06:25:27.367Z,2.61
2019-02-25T06:26:27.370Z,2.66
2019-02-25T06:27:30.669Z,2.69
2019-02-25T06:28:27.330Z,2.84
2019-02-25T06:29:27.329Z,2.91
2019-02-25T06:30:27.301Z,3.10
2019-02-25T06:31:27.297Z,3.24
2019-02-25T06:32:27.304Z,3.40
2019-02-25T06:33:27.274Z,3.50
2019-02-25T06:34:27.292Z,3.60
2019-02-25T06:35:27.295Z,3.65
2019-02-25T06:36:27.269Z,3.61
2019-02-25T06:37:27.234Z,3.71
2019-02-25T06:38:27.233Z,3.90
2019-02-25T06:39:27.220Z,3.83
2019-02-25T06:40:27.245Z,3.96
2019-02-25T06:41:27.199Z,4.00
2019-02-25T06:42:27.181Z,4.04
2019-02-25T06:43:27.156Z,4.10
2019-02-25T06:44:27.152Z,4.21
2019-02-25T06:45:27.172Z,4.37
2019-02-25T06:46:27.135Z,4.57
2019-02-25T06:47:27.119Z,4.69
2019-02-25T06:48:27.122Z,4.69
2019-02-25T06:49:27.092Z,4.91
2019-02-25T06:50:27.105Z,5.02
2019-02-25T06:51:27.077Z,5.22
2019-02-25T06:52:27.071Z,5.43
2019-02-25T06:53:27.050Z,5.57
2019-02-25T06:54:27.037Z,5.73
2019-02-25T06:55:27.044Z,6.03
2019-02-25T06:56:27.038Z,6.11
2019-02-25T06:57:27.012Z,6.19
2019-02-25T06:58:27.005Z,6.44
2019-02-25T06:59:27.002Z,6.66
2019-02-25T07:00:26.983Z,6.95
2019-02-25T07:01:26.978Z,7.05
2019-02-25T07:02:26.962Z,7.47
2019-02-25T07:03:26.942Z,7.71
2019-02-25T07:04:26.968Z,7.93
2019-02-25T07:05:26.923Z,8.15
2019-02-25T07:06:26.953Z,8.47
2019-02-25T07:07:26.902Z,8.62
2019-02-25T07:08:26.881Z,8.54
2019-02-25T07:09:26.902Z,8.73
2019-02-25T07:10:26.870Z,8.79
2019-02-25T07:11:26.861Z,8.84
2019-02-25T07:12:26.879Z,9.02
2019-02-25T07:13:26.833Z,9.12
2019-02-25T07:14:26.823Z,9.06
2019-02-25T07:15:26.835Z,9.21
2019-02-25T07:16:26.799Z,9.27
2019-02-25T07:17:27.897Z,9.24
2019-02-25T07:18:26.820Z,9.31
2019-02-25T07:19:26.772Z,9.40
2019-02-25T07:20:26.761Z,9.46
2019-02-25T07:21:26.738Z,9.60
2019-02-25T07:22:26.737Z,9.73
2019-02-25T07:23:26.748Z,9.75
2019-02-25T07:24:26.723Z,9.79
2019-02-25T07:25:26.695Z,9.82
2019-02-25T07:26:27.604Z,9.96
2019-02-25T07:27:26.687Z,10.01
2019-02-25T07:28:26.698Z,10.12
2019-02-25T07:29:26.661Z,10.26
2019-02-25T07:30:26.650Z,10.40
2019-02-25T07:31:26.645Z,10.55
2019-02-25T07:32:26.631Z,10.63
2019-02-25T07:33:26.606Z,10.83
2019-02-25T07:34:26.619Z,11.02
2019-02-25T07:35:26.591Z,11.24
2019-02-25T07:36:26.578Z,11.20
2019-02-25T07:37:26.575Z,11.32
2019-02-25T07:38:26.563Z,11.49
2019-02-25T07:39:26.565Z,11.80
2019-02-25T07:40:26.540Z,11.99
2019-02-25T07:41:26.550Z,12.09
2019-02-25T07:42:26.526Z,12.39
2019-02-25T07:43:26.509Z,12.52
2019-02-25T07:44:26.525Z,12.66
2019-02-25T07:45:26.481Z,12.78
2019-02-25T07:46:26.463Z,13.17
2019-02-25T07:47:26.454Z,13.49
2019-02-25T07:48:26.448Z,13.84
2019-02-25T07:49:26.441Z,14.28
2019-02-25T07:50:26.498Z,14.65
2019-02-25T07:51:26.447Z,14.88
2019-02-25T07:52:26.406Z,15.30
2019-02-25T07:53:26.388Z,15.54
2019-02-25T07:54:26.380Z,15.68
2019-02-25T07:55:26.631Z,15.96
2019-02-25T07:56:26.638Z,16.25
2019-02-25T07:57:26.352Z,16.50
2019-02-25T07:58:26.340Z,16.90
2019-02-25T07:59:26.326Z,17.07
2019-02-25T08:00:26.690Z,17.10
2019-02-25T08:01:26.314Z,17.38
2019-02-25T08:02:26.303Z,17.59
2019-02-25T08:03:26.292Z,17.88
2019-02-25T08:04:26.285Z,18.21
2019-02-25T08:05:26.770Z,18.34
2019-02-25T08:06:26.247Z,18.44
2019-02-25T08:07:26.243Z,18.57
2019-02-25T08:08:26.230Z,18.50
2019-02-25T08:09:26.234Z,18.46
2019-02-25T08:10:26.233Z,18.46
2019-02-25T08:11:26.210Z,18.36
2019-02-25T08:12:26.175Z,18.68
2019-02-25T08:13:26.176Z,19.05
2019-02-25T08:14:26.170Z,19.38
2019-02-25T08:15:26.170Z,19.57
2019-02-25T08:16:26.143Z,19.93
2019-02-25T08:17:26.124Z,20.28
2019-02-25T08:18:26.118Z,20.56
2019-02-25T08:19:26.104Z,20.89
2019-02-25T08:20:26.127Z,21.09
2019-02-25T08:21:26.092Z,21.23
2019-02-25T08:22:26.096Z,21.45
2019-02-25T08:23:26.074Z,21.71
2019-02-25T08:24:30.601Z,22.27
2019-02-25T08:25:26.038Z,22.35
2019-02-25T08:26:26.047Z,22.46
2019-02-25T08:27:26.028Z,22.93
2019-02-25T08:28:26.018Z,23.32
2019-02-25T08:29:25.996Z,23.58
2019-02-25T08:30:25.987Z,23.76
2019-02-25T08:31:25.983Z,23.86
2019-02-25T08:32:25.980Z,23.62
2019-02-25T08:33:25.987Z,23.43
2019-02-25T08:34:25.939Z,23.32
2019-02-25T08:35:25.937Z,23.15
2019-02-25T08:36:25.918Z,22.53
2019-02-25T08:37:25.905Z,22.52
2019-02-25T08:38:25.913Z,22.67
2019-02-25T08:39:25.880Z,22.80
2019-02-25T08:40:25.865Z,22.92
2019-02-25T08:41:25.864Z,22.97
2019-02-25T08:42:25.882Z,23.05
2019-02-25T08:43:25.872Z,23.26
2019-02-25T08:44:25.823Z,23.53
2019-02-25T08:45:25.833Z,23.61
2019-02-25T08:46:25.814Z,23.55
2019-02-25T08:47:25.806Z,23.75
2019-02-25T08:48:25.811Z,23.79
2019-02-25T08:49:25.768Z,23.83
2019-02-25T08:50:25.764Z,24.08
2019-02-25T08:51:25.747Z,24.14
2019-02-25T08:52:25.739Z,24.29
2019-02-25T08:53:25.756Z,24.34
2019-02-25T08:54:25.763Z,24.31
2019-02-25T08:55:25.721Z,24.42
2019-02-25T08:56:25.701Z,24.32
2019-02-25T08:57:25.682Z,24.37
2019-02-25T08:58:25.681Z,24.44
2019-02-25T08:59:25.704Z,24.44
2019-02-25T09:00:25.660Z,24.05
2019-02-25T09:01:25.639Z,24.29
2019-02-25T09:02:25.627Z,24.17
2019-02-25T09:03:25.644Z,24.16
2019-02-25T09:04:25.607Z,24.08
2019-02-25T09:05:25.630Z,24.27
2019-02-25T09:06:25.595Z,23.82
2019-02-25T09:07:25.582Z,23.50
2019-02-25T09:08:25.575Z,23.58
2019-02-25T09:09:25.551Z,23.62
2019-02-25T09:10:25.572Z,24.08
2019-02-25T09:11:25.533Z,24.50
2019-02-25T09:12:25.521Z,24.82
2019-02-25T09:13:25.515Z,24.97
2019-02-25T09:14:25.516Z,25.19
2019-02-25T09:15:27.506Z,25.24
2019-02-25T09:16:25.495Z,25.32
2019-02-25T09:17:25.474Z,25.31
2019-02-25T09:18:25.466Z,25.39
2019-02-25T09:19:25.457Z,25.56
2019-02-25T09:20:25.444Z,25.62
2019-02-25T09:21:31.563Z,25.89
2019-02-25T09:22:26.403Z,26.25
2019-02-25T09:23:25.419Z,26.54
2019-02-25T09:24:25.399Z,26.40
2019-02-25T09:25:25.380Z,26.62
2019-02-25T09:26:25.399Z,26.81
2019-02-25T09:27:25.359Z,26.86
2019-02-25T09:28:25.354Z,27.01
2019-02-25T09:29:25.350Z,27.13
2019-02-25T09:30:25.327Z,26.98
2019-02-25T09:31:25.322Z,27.29
2019-02-25T09:32:25.330Z,27.41
2019-02-25T09:33:25.303Z,27.32
2019-02-25T09:34:25.278Z,27.17
2019-02-25T09:35:25.282Z,27.42
2019-02-25T09:36:25.742Z,27.46
2019-02-25T09:37:25.269Z,27.53
2019-02-25T09:38:25.243Z,27.28
2019-02-25T09:39:25.295Z,27.33
2019-02-25T09:40:25.254Z,26.79
2019-02-25T09:41:29.844Z,26.83
2019-02-25T09:42:26.235Z,26.98
2019-02-25T09:43:25.180Z,27.16
2019-02-25T09:44:25.171Z,27.48
2019-02-25T09:45:25.172Z,27.71
2019-02-25T09:46:25.175Z,27.84
2019-02-25T09:47:25.143Z,27.89
2019-02-25T09:48:25.152Z,28.06
2019-02-25T09:49:25.253Z,28.04
2019-02-25T09:50:25.118Z,28.01
2019-02-25T09:51:26.028Z,28.17
2019-02-25T09:52:25.949Z,28.33
2019-02-25T09:53:25.102Z,28.59
2019-02-25T09:54:25.070Z,28.53
2019-02-25T09:55:25.065Z,28.80
2019-02-25T09:56:25.045Z,28.69
2019-02-25T09:57:25.036Z,28.25
2019-02-25T09:58:25.048Z,27.69
2019-02-25T09:59:25.029Z,27.01
2019-02-25T10:00:25.009Z,27.16
2019-02-25T10:01:24.987Z,27.19
2019-02-25T10:02:24.995Z,27.35
2019-02-25T10:03:25.005Z,27.29
2019-02-25T10:04:24.980Z,27.17
2019-02-25T10:05:24.944Z,26.95
2019-02-25T10:06:24.937Z,26.98
2019-02-25T10:07:24.923Z,27.38
2019-02-25T10:08:24.918Z,27.21
2019-02-25T10:09:29.854Z,27.59
2019-02-25T10:10:25.907Z,28.14
2019-02-25T10:11:24.896Z,28.09
2019-02-25T10:12:24.888Z,28.32
2019-02-25T10:13:24.860Z,28.59
2019-02-25T10:14:24.876Z,28.84
2019-02-25T10:15:24.862Z,29.13
2019-02-25T10:16:24.836Z,29.31
2019-02-25T10:17:24.827Z,29.13
2019-02-25T10:18:24.815Z,29.15
2019-02-25T10:19:24.817Z,28.84
2019-02-25T10:20:24.787Z,28.23
2019-02-25T10:21:24.805Z,28.16
2019-02-25T10:22:24.781Z,28.04
2019-02-25T10:23:24.767Z,27.92
2019-02-25T10:24:24.762Z,27.79
2019-02-25T10:25:24.771Z,28.10
2019-02-25T10:26:24.736Z,28.23
2019-02-25T10:27:24.717Z,28.28
2019-02-25T10:28:24.705Z,28.19
2019-02-25T10:29:24.712Z,27.96
2019-02-25T10:30:24.695Z,27.92
2019-02-25T10:31:24.701Z,28.28
2019-02-25T10:32:25.950Z,27.95
2019-02-25T10:33:24.656Z,28.11
2019-02-25T10:34:24.642Z,28.38
2019-02-25T10:35:24.967Z,28.60
2019-02-25T10:36:24.656Z,28.65
2019-02-25T10:37:24.641Z,28.81
2019-02-25T10:38:24.600Z,28.80
2019-02-25T10:39:24.625Z,29.00
2019-02-25T10:40:26.919Z,29.16
2019-02-25T10:41:26.136Z,29.04
2019-02-25T10:42:24.569Z,28.96
2019-02-25T10:43:26.118Z,28.93
2019-02-25T10:44:24.549Z,28.95
2019-02-25T10:45:24.533Z,28.73
2019-02-25T10:46:24.556Z,28.77
2019-02-25T10:47:24.511Z,28.60
2019-02-25T10:48:25.842Z,28.54
2019-02-25T10:49:26.297Z,28.48
2019-02-25T10:50:24.487Z,28.43
2019-02-25T10:51:24.465Z,28.32
2019-02-25T10:52:24.474Z,27.74
2019-02-25T10:53:24.458Z,27.42
2019-02-25T10:54:25.482Z,27.51
2019-02-25T10:55:24.433Z,27.28
2019-02-25T10:56:25.932Z,27.29
2019-02-25T10:57:26.594Z,26.68
2019-02-25T10:58:25.192Z,26.24
2019-02-25T10:59:24.404Z,25.86
2019-02-25T11:00:24.375Z,25.98
2019-02-25T11:01:24.712Z,26.05
2019-02-25T11:02:24.358Z,26.05
2019-02-25T11:03:24.354Z,26.21
2019-02-25T11:04:26.096Z,26.18
2019-02-25T11:05:25.942Z,25.84
2019-02-25T11:06:25.215Z,25.44
2019-02-25T11:07:24.318Z,25.31
2019-02-25T11:08:24.299Z,25.12
2019-02-25T11:09:24.305Z,24.75
2019-02-25T11:10:24.264Z,24.85
2019-02-25T11:11:25.432Z,24.69
2019-02-25T11:12:25.767Z,24.88
2019-02-25T11:13:25.554Z,25.37
2019-02-25T11:14:24.262Z,25.56
2019-02-25T11:15:24.223Z,25.54
2019-02-25T11:16:24.209Z,25.72
2019-02-25T11:17:24.435Z,25.94
2019-02-25T11:18:26.176Z,26.21
2019-02-25T11:19:24.925Z,26.39
2019-02-25T11:20:24.158Z,26.49
2019-02-25T11:21:24.169Z,26.59
2019-02-25T11:22:24.147Z,26.84
2019-02-25T11:23:24.126Z,26.64
2019-02-25T11:24:25.470Z,26.98
2019-02-25T11:25:25.809Z,27.17
2019-02-25T11:26:26.090Z,27.21
2019-02-25T11:27:24.096Z,27.16
2019-02-25T11:28:26.013Z,27.04
2019-02-25T11:29:24.074Z,27.23
2019-02-25T11:30:24.121Z,27.19
2019-02-25T11:31:26.321Z,27.48
2019-02-25T11:32:25.917Z,27.54
2019-02-25T11:33:25.175Z,27.84
2019-02-25T11:34:24.028Z,27.98
2019-02-25T11:35:24.052Z,27.94
2019-02-25T11:36:24.010Z,27.98
2019-02-25T11:37:24.728Z,27.85
2019-02-25T11:38:25.918Z,27.88
2019-02-25T11:39:25.280Z,27.94
2019-02-25T11:40:25.907Z,27.99
2019-02-25T11:41:23.961Z,28.33
2019-02-25T11:42:23.938Z,28.38
2019-02-25T11:43:23.930Z,28.47
2019-02-25T11:44:25.931Z,28.41
2019-02-25T11:45:23.939Z,28.58
2019-02-25T11:46:23.931Z,28.50
2019-02-25T11:47:23.895Z,28.33
2019-02-25T11:48:23.897Z,28.22
2019-02-25T11:49:23.897Z,28.21
2019-02-25T11:50:23.851Z,28.23
2019-02-25T11:51:23.860Z,28.25
2019-02-25T11:52:23.834Z,28.22
2019-02-25T11:53:23.835Z,28.35
2019-02-25T11:54:23.814Z,28.38
2019-02-25T11:55:23.797Z,28.13
2019-02-25T11:56:23.813Z,28.04
2019-02-25T11:57:23.796Z,27.82
2019-02-25T11:58:23.799Z,27.71
2019-02-25T11:59:23.763Z,27.46
2019-02-25T12:00:23.758Z,26.83
2019-02-25T12:01:23.769Z,25.97
2019-02-25T12:02:25.866Z,25.06
2019-02-25T12:03:23.712Z,24.14
2019-02-25T12:04:23.706Z,23.31
2019-02-25T12:05:23.710Z,22.39
2019-02-25T12:06:23.692Z,21.69
2019-02-25T12:07:23.703Z,20.91
2019-02-25T12:08:23.695Z,20.34
2019-02-25T12:09:23.648Z,20.09
2019-02-25T12:10:23.634Z,19.80
2019-02-25T12:11:23.643Z,19.47
2019-02-25T12:12:23.664Z,19.18
2019-02-25T12:13:23.605Z,18.86
2019-02-25T12:14:23.594Z,18.59
2019-02-25T12:15:23.589Z,18.17
2019-02-25T12:16:23.573Z,17.92
2019-02-25T12:17:23.581Z,17.73
2019-02-25T12:18:23.589Z,17.47
2019-02-25T12:19:23.556Z,17.36
2019-02-25T12:20:23.537Z,17.23
2019-02-25T12:21:23.529Z,16.98
2019-02-25T12:22:23.510Z,16.95
2019-02-25T12:23:23.529Z,16.92
2019-02-25T12:24:23.486Z,16.81
2019-02-25T12:25:23.486Z,16.78
2019-02-25T12:26:23.475Z,16.60
2019-02-25T12:27:23.460Z,16.40
2019-02-25T12:28:23.479Z,16.22
2019-02-25T12:29:23.441Z,16.14
2019-02-25T12:30:23.429Z,16.00
2019-02-25T12:31:23.425Z,16.00
2019-02-25T12:32:23.405Z,15.96
2019-02-25T12:33:23.414Z,15.99
2019-02-25T12:34:23.377Z,15.85
2019-02-25T12:35:23.364Z,15.72
2019-02-25T12:36:23.358Z,15.49
2019-02-25T12:37:23.351Z,15.61
2019-02-25T12:38:23.361Z,15.63
2019-02-25T12:39:23.332Z,15.49
2019-02-25T12:40:23.319Z,15.38
2019-02-25T12:41:23.296Z,15.36
2019-02-25T12:42:23.293Z,15.38
2019-02-25T12:43:23.313Z,15.41
2019-02-25T12:44:23.273Z,15.41
2019-02-25T12:45:23.259Z,15.23
2019-02-25T12:46:23.247Z,15.20
2019-02-25T12:47:23.237Z,15.26
2019-02-25T12:48:23.249Z,15.24
2019-02-25T12:49:23.223Z,15.13
2019-02-25T12:50:23.215Z,15.15
2019-02-25T12:51:23.198Z,14.94
2019-02-25T12:52:23.183Z,14.95
2019-02-25T12:53:23.202Z,14.88
2019-02-25T12:54:23.163Z,15.01
2019-02-25T12:55:23.149Z,14.98
2019-02-25T12:56:23.145Z,14.87
2019-02-25T12:57:23.134Z,14.78
2019-02-25T12:58:23.125Z,14.90
2019-02-25T12:59:23.123Z,14.90
2019-02-25T13:00:23.122Z,14.88
2019-02-25T13:01:23.097Z,14.90
2019-02-25T13:02:23.086Z,14.87
2019-02-25T13:03:23.061Z,14.83
2019-02-25T13:04:23.063Z,14.71
2019-02-25T13:05:23.059Z,14.62
2019-02-25T13:06:23.030Z,14.60
2019-02-25T13:07:23.048Z,14.57